Time;durP1;ratioP1;P1;durP2;ratioP2;P2;SDS_P1;SDS_P2;PMS_P1;PMS_P2;Temp;Humidity;BMP_temperature;BMP_pressure;BME280_temperature;BME280_humidity;BME280_pressure;Samples;Min_cycle;Max_cycle;Signal;HPM_P1;HPM_P2
2023/08/29 00:00:15;;;;;;;1.90;1.27;;;;;;;22.15;nan;99949.28;4980708;28;20038;-78
2023/08/29 00:02:41;;;;;;;1.52;1.35;;;;;;;22.16;nan;99948.31;4978463;28;20731;-77
2023/08/29 00:05:08;;;;;;;2.22;1.65;;;;;;;22.17;nan;99944.69;4986839;28;20049;-77
2023/08/29 00:07:33;;;;;;;1.50;1.40;;;;;;;22.18;nan;99942.91;4963859;28;20047;-77
2023/08/29 00:09:59;;;;;;;2.10;1.42;;;;;;;22.18;nan;99950.84;4980535;28;20607;-77
2023/08/29 00:12:24;;;;;;;1.35;1.25;;;;;;;22.17;nan;99949.97;4977900;28;20026;-76
2023/08/29 00:14:49;;;;;;;2.05;1.40;;;;;;;22.18;nan;99948.19;4980492;28;20780;-76
2023/08/29 00:17:16;;;;;;;1.58;1.10;;;;;;;22.18;nan;99949.03;4982736;28;22513;-77
2023/08/29 00:19:41;;;;;;;5.22;1.50;;;;;;;22.17;nan;99946.50;4981045;28;20035;-77
2023/08/29 00:22:07;;;;;;;3.08;1.45;;;;;;;22.17;nan;99957.91;4983417;28;20496;-78
2023/08/29 00:24:32;;;;;;;4.18;1.80;;;;;;;22.18;nan;99961.41;4989604;28;20134;-78
2023/08/29 00:26:57;;;;;;;1.50;1.30;;;;;;;22.18;nan;99966.69;4980797;28;20747;-77
2023/08/29 00:30:28;;;;;;;4.28;1.58;;;;;;;22.18;nan;99974.63;4974438;28;20551;-76
2023/08/29 00:32:53;;;;;;;4.03;1.50;;;;;;;22.18;nan;99974.63;4982850;28;20259;-76
2023/08/29 00:35:19;;;;;;;1.45;1.35;;;;;;;22.18;nan;99982.56;4983522;28;20042;-76
2023/08/29 00:37:44;;;;;;;1.65;1.40;;;;;;;22.18;nan;99979.91;4979407;28;20483;-76
2023/08/29 00:40:10;;;;;;;1.85;1.40;;;;;;;22.17;nan;99983.50;4979696;28;20036;-76
2023/08/29 00:42:35;;;;;;;1.58;1.20;;;;;;;22.18;nan;99974.63;4979306;28;20666;-77
2023/08/29 00:45:01;;;;;;;1.20;1.10;;;;;;;22.17;nan;99972.94;4982316;28;20034;-76
2023/08/29 00:47:27;;;;;;;3.35;1.35;;;;;;;22.17;nan;99975.59;4981379;28;20865;-76
2023/08/29 00:49:53;;;;;;;2.35;1.30;;;;;;;22.16;nan;99965.97;4983685;28;20030;-75
2023/08/29 00:52:18;;;;;;;1.50;1.40;;;;;;;22.16;nan;99965.97;4981817;28;20033;-76
2023/08/29 00:54:43;;;;;;;3.15;1.58;;;;;;;22.16;nan;99950.13;4984693;28;20030;-76
2023/08/29 00:57:09;;;;;;;2.45;1.50;;;;;;;22.15;nan;99959.03;4982027;28;20121;-76
2023/08/29 00:59:34;;;;;;;3.53;1.90;;;;;;;22.15;nan;99957.22;4984862;28;20042;-75
2023/08/29 01:01:59;;;;;;;1.60;1.50;;;;;;;22.16;nan;99961.53;4985703;28;20391;-76
2023/08/29 01:04:25;;;;;;;1.60;1.50;;;;;;;22.16;nan;99952.75;4976983;28;20045;-76
2023/08/29 01:06:50;;;;;;;1.75;1.33;;;;;;;22.17;nan;99962.34;4987308;28;20057;-76
2023/08/29 01:09:16;;;;;;;1.70;1.60;;;;;;;22.17;nan;99962.34;4982778;28;20705;-76
2023/08/29 01:11:50;;;;;;;1.60;1.50;;;;;;;22.16;nan;99961.53;4983869;28;20038;-76
2023/08/29 01:14:55;;;;;;;2.25;1.40;;;;;;;22.16;nan;99971.28;4993184;28;20725;-76
2023/08/29 01:17:24;;;;;;;1.45;1.35;;;;;;;22.17;nan;99983.50;4989772;28;20033;-76
2023/08/29 01:19:51;;;;;;;1.50;1.40;;;;;;;22.17;nan;99980.88;4985541;28;20053;-76
2023/08/29 01:22:32;;;;;;;3.25;1.30;;;;;;;22.16;nan;99979.19;4986443;28;20516;-77
2023/08/29 01:25:04;;;;;;;2.17;1.30;;;;;;;22.16;nan;99979.19;4995682;28;20033;-75
2023/08/29 01:27:30;;;;;;;1.83;1.50;;;;;;;22.16;nan;99974.75;4983348;28;20036;-76
2023/08/29 01:29:56;;;;;;;2.80;1.50;;;;;;;22.16;nan;99965.97;4984280;28;20860;-77
2023/08/29 01:32:22;;;;;;;3.28;1.50;;;;;;;22.15;nan;99974.91;4984051;28;20046;-77
2023/08/29 01:34:47;;;;;;;3.55;1.42;;;;;;;22.15;nan;99967.78;4994506;28;20030;-78
2023/08/29 01:37:13;;;;;;;3.13;1.50;;;;;;;22.16;nan;99972.09;4982500;28;20611;-77
2023/08/29 01:39:38;;;;;;;1.33;1.20;;;;;;;22.15;nan;99966.97;4984290;28;20026;-77
2023/08/29 01:42:03;;;;;;;2.10;1.65;;;;;;;22.16;nan;99958.06;4983564;28;20030;-77
2023/08/29 01:44:29;;;;;;;1.45;1.35;;;;;;;22.16;nan;99955.41;4984076;28;20030;-77
2023/08/29 01:46:54;;;;;;;3.25;1.42;;;;;;;22.16;nan;99948.31;4983393;28;20141;-76
2023/08/29 01:49:19;;;;;;;1.80;1.40;;;;;;;22.17;nan;99955.25;4983610;28;20026;-76
2023/08/29 01:51:45;;;;;;;2.80;1.45;;;;;;;22.18;nan;99953.47;4984214;28;20042;-76
2023/08/29 01:54:10;;;;;;;1.30;1.20;;;;;;;22.16;nan;99944.84;4987957;28;20037;-76
2023/08/29 01:56:36;;;;;;;1.48;1.30;;;;;;;22.17;nan;99947.34;4983640;28;20030;-76
2023/08/29 01:59:03;;;;;;;3.70;1.52;;;;;;;22.16;nan;99947.47;4981416;28;20144;-76
2023/08/29 02:01:29;;;;;;;2.03;1.20;;;;;;;22.15;nan;99943.16;4984704;28;20030;-77
2023/08/29 02:03:55;;;;;;;1.00;1.00;;;;;;;22.15;nan;99945.81;4991714;28;20095;-76
2023/08/29 02:06:20;;;;;;;1.75;1.55;;;;;;;22.15;nan;99944.00;4984715;28;20053;-77
2023/08/29 02:08:46;;;;;;;2.30;1.50;;;;;;;22.15;nan;99937.88;4984935;28;20126;-77
2023/08/29 02:11:11;;;;;;;2.45;1.45;;;;;;;22.15;nan;99940.53;4983489;28;20842;-76
2023/08/29 02:13:36;;;;;;;1.23;1.17;;;;;;;22.15;nan;99941.34;4989100;28;20795;-77
2023/08/29 02:16:02;;;;;;;2.25;1.35;;;;;;;22.15;nan;99938.72;4981488;28;20033;-76
2023/08/29 02:18:28;;;;;;;1.40;1.30;;;;;;;22.16;nan;99926.31;4983145;28;20040;-76
2023/08/29 02:20:54;;;;;;;1.42;1.33;;;;;;;22.15;nan;99922.84;4982334;28;20442;-76
2023/08/29 02:23:20;;;;;;;4.13;1.52;;;;;;;22.16;nan;99924.50;4989519;28;20060;-74
2023/08/29 02:25:45;;;;;;;3.90;1.33;;;;;;;22.16;nan;99919.22;4992706;28;20111;-77
2023/08/29 02:28:10;;;;;;;1.55;1.23;;;;;;;22.18;nan;99921.75;4982898;28;20030;-75
2023/08/29 02:30:36;;;;;;;1.70;1.60;;;;;;;22.16;nan;99919.22;4982500;28;20113;-76
2023/08/29 02:33:01;;;;;;;2.20;1.20;;;;;;;22.16;nan;99919.22;4979663;28;20087;-76
2023/08/29 02:35:27;;;;;;;3.90;1.30;;;;;;;22.16;nan;99919.22;4979229;28;20042;-76
2023/08/29 02:37:52;;;;;;;2.65;1.38;;;;;;;22.17;nan;99928.00;4982231;28;21613;-76
2023/08/29 02:40:17;;;;;;;2.42;1.40;;;;;;;22.16;nan;99921.88;4984567;28;20769;-76
2023/08/29 02:42:43;;;;;;;1.20;1.20;;;;;;;22.16;nan;99921.88;4987693;28;20643;-76
2023/08/29 02:45:09;;;;;;;2.55;1.10;;;;;;;22.15;nan;99916.72;4985488;28;20053;-75
2023/08/29 02:47:34;;;;;;;2.60;1.40;;;;;;;22.15;nan;99914.09;4983787;28;20140;-75
2023/08/29 02:50:00;;;;;;;1.33;1.17;;;;;;;22.15;nan;99912.28;4983495;28;20957;-75
2023/08/29 02:52:25;;;;;;;1.27;1.20;;;;;;;22.15;nan;99909.63;4987341;28;20259;-76
2023/08/29 02:54:50;;;;;;;1.67;1.20;;;;;;;22.14;nan;99912.41;4996876;28;20173;-76
2023/08/29 02:57:16;;;;;;;1.35;1.25;;;;;;;22.13;nan;99911.59;4981592;28;20044;-76
2023/08/29 02:59:41;;;;;;;1.55;1.45;;;;;;;22.15;nan;99916.72;4982575;28;20193;-75
2023/08/29 03:02:07;;;;;;;1.40;1.30;;;;;;;22.13;nan;99916.88;4982129;28;20141;-76
2023/08/29 03:04:32;;;;;;;1.30;1.20;;;;;;;22.14;nan;99918.53;4976413;28;20446;-76
2023/08/29 03:06:58;;;;;;;1.02;1.00;;;;;;;22.13;nan;99924.81;4980634;28;20108;-76
2023/08/29 03:09:24;;;;;;;2.30;1.20;;;;;;;22.13;nan;99927.44;4982242;28;20425;-76
2023/08/29 03:11:49;;;;;;;1.35;1.35;;;;;;;22.12;nan;99923.13;4966735;28;20111;-76
2023/08/29 03:14:15;;;;;;;2.78;1.38;;;;;;;22.12;nan;99924.91;4990707;28;20054;-76
2023/08/29 03:16:40;;;;;;;1.58;1.20;;;;;;;22.13;nan;99919.50;4980953;28;20053;-75
2023/08/29 03:19:05;;;;;;;1.67;1.10;;;;;;;22.13;nan;99919.50;4982117;28;20040;-75
2023/08/29 03:21:31;;;;;;;1.30;1.20;;;;;;;22.14;nan;99912.41;4983601;28;20486;-76
2023/08/29 03:23:56;;;;;;;1.30;1.20;;;;;;;22.13;nan;99914.22;4985673;28;20050;-75
2023/08/29 03:26:21;;;;;;;1.50;1.40;;;;;;;22.15;nan;99914.09;4971159;28;20030;-76
2023/08/29 03:28:47;;;;;;;2.95;1.48;;;;;;;22.15;nan;99914.09;4983799;28;20018;-75
2023/08/29 03:31:14;;;;;;;1.75;1.15;;;;;;;22.14;nan;99910.59;4983738;28;20433;-76
2023/08/29 03:33:40;;;;;;;2.17;1.10;;;;;;;22.14;nan;99912.41;4983117;28;20140;-76
2023/08/29 03:36:06;;;;;;;1.63;1.38;;;;;;;22.13;nan;99906.28;4988016;28;20038;-76
2023/08/29 03:38:34;;;;;;;4.10;1.40;;;;;;;22.15;nan;99911.44;4981834;28;20501;-76
2023/08/29 03:41:00;;;;;;;2.30;1.33;;;;;;;22.12;nan;99907.28;4982425;28;20061;-76
2023/08/29 03:43:27;;;;;;;1.67;1.48;;;;;;;22.13;nan;99906.28;4983911;28;20277;-77
2023/08/29 03:46:02;;;;;;;2.05;1.48;;;;;;;22.15;nan;99911.44;4990599;28;20038;-77
2023/08/29 03:48:28;;;;;;;1.58;1.23;;;;;;;22.14;nan;99907.13;4982722;28;20779;-77
2023/08/29 03:50:54;;;;;;;1.35;1.13;;;;;;;22.15;nan;99911.44;4965325;28;20029;-77
2023/08/29 03:53:19;;;;;;;2.15;1.33;;;;;;;22.14;nan;99905.31;4984995;28;20693;-77
2023/08/29 03:55:45;;;;;;;1.15;1.15;;;;;;;22.15;nan;99908.78;4992144;28;20136;-76
2023/08/29 03:58:10;;;;;;;1.08;1.00;;;;;;;22.15;nan;99898.22;4982511;28;20036;-77
2023/08/29 04:00:36;;;;;;;1.95;1.40;;;;;;;22.14;nan;99902.69;4965925;28;20466;-77
2023/08/29 04:03:01;;;;;;;1.40;1.23;;;;;;;22.13;nan;99900.19;4991078;28;20044;-76
2023/08/29 04:05:27;;;;;;;1.40;1.30;;;;;;;22.13;nan;99908.94;4980789;28;20054;-77
2023/08/29 04:07:52;;;;;;;1.50;1.30;;;;;;;22.13;nan;99900.19;4966482;28;20038;-77
2023/08/29 04:10:18;;;;;;;1.75;1.30;;;;;;;22.14;nan;99899.19;4980867;28;20043;-76
2023/08/29 04:12:43;;;;;;;2.00;1.30;;;;;;;22.14;nan;99900.03;4971895;28;20029;-77
2023/08/29 04:15:11;;;;;;;1.58;1.33;;;;;;;22.13;nan;99893.06;4990532;28;20030;-75
2023/08/29 04:17:36;;;;;;;1.55;1.45;;;;;;;22.13;nan;99894.88;4982484;28;20106;-76
2023/08/29 04:20:08;;;;;;;1.92;1.50;;;;;;;22.14;nan;99888.63;4982653;28;20045;-76
2023/08/29 04:22:34;;;;;;;2.42;1.50;;;;;;;22.13;nan;99897.53;4973528;28;20025;-76
2023/08/29 04:24:59;;;;;;;1.45;1.35;;;;;;;22.14;nan;99893.91;4994019;28;20034;-76
2023/08/29 04:27:24;;;;;;;3.85;1.40;;;;;;;22.12;nan;99894.06;4986702;28;20072;-75
2023/08/29 04:29:50;;;;;;;2.97;1.40;;;;;;;22.12;nan;99891.41;4987232;28;20184;-76
2023/08/29 04:32:15;;;;;;;1.40;1.30;;;;;;;22.12;nan;99896.69;4985707;28;20145;-76
2023/08/29 04:34:41;;;;;;;1.60;1.30;;;;;;;22.11;nan;99892.34;4984049;28;20036;-76
2023/08/29 04:37:07;;;;;;;1.20;1.10;;;;;;;22.12;nan;99890.56;4983791;28;20131;-77
2023/08/29 04:39:32;;;;;;;1.20;1.10;;;;;;;22.12;nan;99894.06;4987005;28;20029;-76
2023/08/29 04:41:58;;;;;;;3.47;1.40;;;;;;;22.12;nan;99890.56;4987587;28;20794;-77
2023/08/29 04:44:24;;;;;;;1.20;1.20;;;;;;;22.11;nan;99889.72;4980798;28;20650;-76
2023/08/29 04:46:49;;;;;;;1.60;1.50;;;;;;;22.10;nan;99892.50;4988709;28;20040;-77
2023/08/29 04:49:15;;;;;;;1.23;1.13;;;;;;;22.10;nan;99893.34;4984889;28;20354;-76
2023/08/29 04:51:40;;;;;;;1.33;1.30;;;;;;;22.10;nan;99892.50;4985993;28;20130;-76
2023/08/29 04:54:06;;;;;;;1.40;1.30;;;;;;;22.10;nan;99893.34;4987371;28;20104;-77
2023/08/29 04:56:32;;;;;;;2.63;1.58;;;;;;;22.10;nan;99889.88;4983573;28;20791;-77
2023/08/29 04:58:57;;;;;;;4.15;1.25;;;;;;;22.08;nan;99889.97;4968645;28;20066;-77
2023/08/29 05:01:23;;;;;;;1.40;1.10;;;;;;;22.09;nan;99893.44;4985527;28;20132;-77
2023/08/29 05:03:48;;;;;;;2.00;1.70;;;;;;;22.10;nan;99895.97;4994845;28;20076;-77
2023/08/29 05:06:14;;;;;;;2.58;1.35;;;;;;;22.09;nan;99896.09;4981199;28;20032;-78
2023/08/29 05:08:39;;;;;;;3.30;1.60;;;;;;;22.13;nan;99887.78;4986274;28;20031;-77
2023/08/29 05:11:04;;;;;;;1.48;1.38;;;;;;;22.12;nan;99896.69;4979991;28;20095;-76
2023/08/29 05:13:30;;;;;;;2.05;1.15;;;;;;;22.10;nan;99895.16;4983006;28;20057;-77
2023/08/29 05:15:55;;;;;;;1.40;1.25;;;;;;;22.09;nan;99893.44;4987477;28;20033;-77
2023/08/29 05:18:20;;;;;;;1.45;1.10;;;;;;;22.08;nan;99899.72;4967210;28;20478;-77
2023/08/29 05:20:46;;;;;;;3.28;1.60;;;;;;;22.07;nan;99887.47;4986544;28;20518;-77
2023/08/29 05:23:11;;;;;;;1.33;1.23;;;;;;;22.07;nan;99895.41;4983428;28;20647;-77
2023/08/29 05:25:36;;;;;;;2.70;1.35;;;;;;;22.07;nan;99898.06;4988975;28;20482;-77
2023/08/29 05:28:02;;;;;;;1.70;1.38;;;;;;;22.05;nan;99889.41;4983748;28;20038;-76
2023/08/29 05:30:30;;;;;;;2.05;1.30;;;;;;;22.05;nan;99892.06;4983989;28;20092;-76
2023/08/29 05:32:55;;;;;;;1.50;1.33;;;;;;;22.05;nan;99892.06;4989379;28;20113;-77
2023/08/29 05:35:21;;;;;;;1.38;1.30;;;;;;;22.05;nan;99894.69;4990881;28;20130;-77
2023/08/29 05:37:46;;;;;;;3.03;1.30;;;;;;;22.05;nan;99894.69;4984562;28;20462;-78
2023/08/29 05:40:11;;;;;;;3.50;1.30;;;;;;;22.04;nan;99896.50;4984106;28;20204;-77
2023/08/29 05:42:37;;;;;;;1.60;1.50;;;;;;;22.02;nan;99882.59;4989895;28;20033;-77
2023/08/29 05:45:03;;;;;;;2.35;1.52;;;;;;;22.02;nan;99894.97;4985708;28;20060;-78
2023/08/29 05:47:28;;;;;;;1.40;1.30;;;;;;;22.02;nan;99895.81;4983519;28;20042;-77
2023/08/29 05:49:54;;;;;;;1.40;1.30;;;;;;;22.03;nan;99891.34;4984717;28;20038;-77
2023/08/29 05:52:19;;;;;;;1.35;1.25;;;;;;;22.01;nan;99893.28;4983911;28;20033;-77
2023/08/29 05:54:44;;;;;;;1.70;1.40;;;;;;;22.02;nan;99901.09;4993228;28;20030;-76
2023/08/29 05:57:09;;;;;;;4.50;1.52;;;;;;;22.05;nan;99894.69;4985081;28;20037;-79
2023/08/29 05:59:35;;;;;;;2.85;1.67;;;;;;;22.03;nan;99897.47;4983514;28;20042;-77
2023/08/29 06:02:00;;;;;;;3.75;1.60;;;;;;;22.03;nan;99897.47;4986991;28;20030;-78
2023/08/29 06:04:26;;;;;;;2.72;1.60;;;;;;;22.03;nan;99896.66;4985989;28;23029;-79
2023/08/29 06:06:51;;;;;;;3.63;1.58;;;;;;;22.01;nan;99896.78;4987888;28;20038;-78
2023/08/29 06:09:17;;;;;;;3.58;1.40;;;;;;;22.02;nan;99897.63;4984708;28;20026;-78
2023/08/29 06:11:43;;;;;;;4.15;1.83;;;;;;;22.00;nan;99904.84;4984469;28;20682;-78
2023/08/29 06:14:08;;;;;;;3.58;1.75;;;;;;;21.98;nan;99896.22;4988249;28;20036;-78
2023/08/29 06:16:34;;;;;;;2.72;1.70;;;;;;;21.99;nan;99900.53;4988073;28;20054;-78
2023/08/29 06:18:59;;;;;;;2.75;1.67;;;;;;;21.98;nan;99907.63;4984536;28;20030;-78
2023/08/29 06:21:24;;;;;;;2.05;1.92;;;;;;;21.99;nan;99906.66;4983619;28;20057;-78
2023/08/29 06:23:49;;;;;;;4.57;3.15;;;;;;;21.63;nan;99900.19;4992780;28;20038;-77
2023/08/29 06:26:15;;;;;;;5.97;4.00;;;;;;;20.95;nan;99910.41;4963330;28;20041;-77
2023/08/29 06:28:41;;;;;;;4.85;4.45;;;;;;;20.69;nan;99907.31;4982234;28;20088;-77
2023/08/29 06:31:09;;;;;;;6.05;4.75;;;;;;;20.57;nan;99905.69;4981658;28;20050;-77
2023/08/29 06:33:37;;;;;;;8.85;4.70;;;;;;;20.52;nan;99913.16;4993049;28;20829;-78
2023/08/29 06:36:02;;;;;;;6.18;4.60;;;;;;;20.36;nan;99919.69;4991243;28;20037;-78
2023/08/29 06:38:28;;;;;;;6.43;4.90;;;;;;;20.23;nan;99921.63;4981476;28;20042;-78
2023/08/29 06:40:55;;;;;;;5.20;4.53;;;;;;;20.29;nan;99923.75;4984039;28;20034;-77
2023/08/29 06:43:20;;;;;;;5.13;4.63;;;;;;;20.22;nan;99927.84;4984075;28;20496;-77
2023/08/29 06:45:46;;;;;;;5.10;4.63;;;;;;;20.11;nan;99927.88;4981122;28;20041;-77
2023/08/29 06:48:11;;;;;;;5.45;4.55;;;;;;;20.08;nan;99930.75;4982126;28;20786;-76
2023/08/29 06:50:36;;;;;;;4.72;4.20;;;;;;;20.08;nan;99930.75;4982455;28;20806;-76
2023/08/29 06:53:03;;;;;;;6.45;4.55;;;;;;;20.14;nan;99932.94;4985852;28;20136;-77
2023/08/29 06:55:29;;;;;;;4.95;4.28;;;;;;;19.95;nan;99936.19;4991144;28;20037;-75
2023/08/29 06:57:54;;;;;;;6.38;4.65;;;;;;;19.87;nan;99932.50;4982040;28;20038;-75
2023/08/29 07:00:22;;;;;;;7.47;4.70;;;;;;;19.97;nan;99934.28;4980248;28;20129;-74
2023/08/29 07:02:48;;;;;;;7.50;4.82;;;;;;;20.13;nan;99924.16;4968838;28;20038;-77
